sensor_id;sensor_type;location;lat;lon;timestamp;temperature;humidity
74224;SHT31;62585;49.706;18.216;2023-06-05T00:02:15;11.77;84.05
74224;SHT31;62585;49.706;18.216;2023-06-05T00:04:41;11.63;83.92
74224;SHT31;62585;49.706;18.216;2023-06-05T00:07:09;11.63;84.15
74224;SHT31;62585;49.706;18.216;2023-06-05T00:09:34;11.62;83.72
74224;SHT31;62585;49.706;18.216;2023-06-05T00:12:01;11.77;82.35
74224;SHT31;62585;49.706;18.216;2023-06-05T00:14:26;11.83;82.33
74224;SHT31;62585;49.706;18.216;2023-06-05T00:16:52;11.65;83.29
74224;SHT31;62585;49.706;18.216;2023-06-05T00:19:18;11.58;83.50
74224;SHT31;62585;49.706;18.216;2023-06-05T00:21:44;11.70;82.98
74224;SHT31;62585;49.706;18.216;2023-06-05T00:24:10;11.69;82.59
74224;SHT31;62585;49.706;18.216;2023-06-05T00:26:35;11.93;81.60
74224;SHT31;62585;49.706;18.216;2023-06-05T00:29:01;11.84;82.10
74224;SHT31;62585;49.706;18.216;2023-06-05T00:31:27;11.86;82.00
74224;SHT31;62585;49.706;18.216;2023-06-05T00:33:53;11.84;81.85
74224;SHT31;62585;49.706;18.216;2023-06-05T00:36:19;11.83;81.64
74224;SHT31;62585;49.706;18.216;2023-06-05T00:38:51;11.80;82.37
74224;SHT31;62585;49.706;18.216;2023-06-05T00:41:18;11.67;82.61
74224;SHT31;62585;49.706;18.216;2023-06-05T00:43:43;11.54;83.47
74224;SHT31;62585;49.706;18.216;2023-06-05T00:46:10;11.55;83.06
74224;SHT31;62585;49.706;18.216;2023-06-05T00:48:36;11.52;83.56
74224;SHT31;62585;49.706;18.216;2023-06-05T00:51:03;11.46;84.07
74224;SHT31;62585;49.706;18.216;2023-06-05T00:53:30;11.34;84.49
74224;SHT31;62585;49.706;18.216;2023-06-05T00:55:56;11.24;85.25
74224;SHT31;62585;49.706;18.216;2023-06-05T00:58:22;11.07;85.67
74224;SHT31;62585;49.706;18.216;2023-06-05T01:00:53;11.00;86.05
74224;SHT31;62585;49.706;18.216;2023-06-05T01:03:21;10.90;86.00
74224;SHT31;62585;49.706;18.216;2023-06-05T01:05:48;10.83;86.35
74224;SHT31;62585;49.706;18.216;2023-06-05T01:08:15;10.81;86.34
74224;SHT31;62585;49.706;18.216;2023-06-05T01:10:43;10.91;86.16
74224;SHT31;62585;49.706;18.216;2023-06-05T01:13:24;10.98;85.76
74224;SHT31;62585;49.706;18.216;2023-06-05T01:15:52;11.01;85.56
74224;SHT31;62585;49.706;18.216;2023-06-05T01:18:21;11.03;85.48
74224;SHT31;62585;49.706;18.216;2023-06-05T01:20:48;11.03;85.34
74224;SHT31;62585;49.706;18.216;2023-06-05T01:23:13;11.11;85.25
74224;SHT31;62585;49.706;18.216;2023-06-05T01:25:40;11.03;85.44
74224;SHT31;62585;49.706;18.216;2023-06-05T01:28:20;10.97;85.74
74224;SHT31;62585;49.706;18.216;2023-06-05T01:30:57;10.79;85.95
74224;SHT31;62585;49.706;18.216;2023-06-05T01:33:35;10.80;86.25
74224;SHT31;62585;49.706;18.216;2023-06-05T01:36:11;10.97;86.05
74224;SHT31;62585;49.706;18.216;2023-06-05T01:38:40;10.74;86.55
74224;SHT31;62585;49.706;18.216;2023-06-05T01:41:07;10.59;87.03
74224;SHT31;62585;49.706;18.216;2023-06-05T01:43:34;10.59;86.95
74224;SHT31;62585;49.706;18.216;2023-06-05T01:46:00;10.66;87.15
74224;SHT31;62585;49.706;18.216;2023-06-05T01:48:26;10.81;87.66
74224;SHT31;62585;49.706;18.216;2023-06-05T01:50:57;10.85;87.24
74224;SHT31;62585;49.706;18.216;2023-06-05T01:53:24;10.83;87.45
74224;SHT31;62585;49.706;18.216;2023-06-05T01:55:50;10.90;87.31
74224;SHT31;62585;49.706;18.216;2023-06-05T01:58:23;10.98;87.32
74224;SHT31;62585;49.706;18.216;2023-06-05T02:00:49;10.90;87.72
74224;SHT31;62585;49.706;18.216;2023-06-05T02:03:15;10.85;88.01
74224;SHT31;62585;49.706;18.216;2023-06-05T02:05:42;10.93;87.86
74224;SHT31;62585;49.706;18.216;2023-06-05T02:08:07;10.79;88.18
74224;SHT31;62585;49.706;18.216;2023-06-05T02:13:11;10.88;87.60
74224;SHT31;62585;49.706;18.216;2023-06-05T02:15:37;10.91;87.56
74224;SHT31;62585;49.706;18.216;2023-06-05T02:18:03;10.88;87.68
74224;SHT31;62585;49.706;18.216;2023-06-05T02:20:30;10.74;88.17
74224;SHT31;62585;49.706;18.216;2023-06-05T02:22:56;10.77;88.06
74224;SHT31;62585;49.706;18.216;2023-06-05T02:25:22;10.76;88.16
74224;SHT31;62585;49.706;18.216;2023-06-05T02:27:53;10.81;88.11
74224;SHT31;62585;49.706;18.216;2023-06-05T02:30:19;10.84;88.17
74224;SHT31;62585;49.706;18.216;2023-06-05T02:32:45;10.87;88.09
74224;SHT31;62585;49.706;18.216;2023-06-05T02:35:12;10.91;87.90
74224;SHT31;62585;49.706;18.216;2023-06-05T02:37:39;10.94;87.40
74224;SHT31;62585;49.706;18.216;2023-06-05T02:40:12;10.90;87.68
74224;SHT31;62585;49.706;18.216;2023-06-05T02:42:38;10.98;87.46
74224;SHT31;62585;49.706;18.216;2023-06-05T02:45:05;10.87;88.07
74224;SHT31;62585;49.706;18.216;2023-06-05T02:47:31;10.63;88.31
74224;SHT31;62585;49.706;18.216;2023-06-05T02:49:57;10.67;88.44
74224;SHT31;62585;49.706;18.216;2023-06-05T02:52:23;10.73;88.13
74224;SHT31;62585;49.706;18.216;2023-06-05T02:54:50;10.79;88.44
74224;SHT31;62585;49.706;18.216;2023-06-05T02:57:16;10.64;88.72
74224;SHT31;62585;49.706;18.216;2023-06-05T02:59:43;10.53;88.96
74224;SHT31;62585;49.706;18.216;2023-06-05T03:02:10;10.48;88.76
74224;SHT31;62585;49.706;18.216;2023-06-05T03:04:37;10.48;88.36
74224;SHT31;62585;49.706;18.216;2023-06-05T03:07:06;10.45;88.56
74224;SHT31;62585;49.706;18.216;2023-06-05T03:09:33;10.55;88.22
74224;SHT31;62585;49.706;18.216;2023-06-05T03:11:58;10.66;87.55
74224;SHT31;62585;49.706;18.216;2023-06-05T03:14:25;10.69;87.09
74224;SHT31;62585;49.706;18.216;2023-06-05T03:16:52;10.73;86.93
74224;SHT31;62585;49.706;18.216;2023-06-05T03:19:19;10.84;87.12
74224;SHT31;62585;49.706;18.216;2023-06-05T03:21:44;10.70;87.52
74224;SHT31;62585;49.706;18.216;2023-06-05T03:24:12;10.80;87.77
74224;SHT31;62585;49.706;18.216;2023-06-05T03:26:42;10.90;87.76
74224;SHT31;62585;49.706;18.216;2023-06-05T03:29:09;11.06;87.27
74224;SHT31;62585;49.706;18.216;2023-06-05T03:31:35;11.12;86.55
74224;SHT31;62585;49.706;18.216;2023-06-05T03:34:02;11.17;86.40
74224;SHT31;62585;49.706;18.216;2023-06-05T03:36:30;11.27;85.98
74224;SHT31;62585;49.706;18.216;2023-06-05T03:38:59;11.32;86.36
74224;SHT31;62585;49.706;18.216;2023-06-05T03:41:25;11.32;86.52
74224;SHT31;62585;49.706;18.216;2023-06-05T03:43:51;11.24;86.82
74224;SHT31;62585;49.706;18.216;2023-06-05T03:46:17;11.19;86.73
74224;SHT31;62585;49.706;18.216;2023-06-05T03:48:47;11.36;86.90
74224;SHT31;62585;49.706;18.216;2023-06-05T03:51:14;11.45;86.53
74224;SHT31;62585;49.706;18.216;2023-06-05T03:53:44;11.56;86.36
74224;SHT31;62585;49.706;18.216;2023-06-05T03:56:10;11.66;86.15
74224;SHT31;62585;49.706;18.216;2023-06-05T03:58:36;11.72;85.33
74224;SHT31;62585;49.706;18.216;2023-06-05T04:01:04;11.75;85.89
74224;SHT31;62585;49.706;18.216;2023-06-05T04:03:30;11.86;85.91
74224;SHT31;62585;49.706;18.216;2023-06-05T04:05:55;11.87;85.87
74224;SHT31;62585;49.706;18.216;2023-06-05T04:08:21;11.90;85.24
74224;SHT31;62585;49.706;18.216;2023-06-05T04:10:48;11.97;85.68
74224;SHT31;62585;49.706;18.216;2023-06-05T04:13:14;11.96;85.71
74224;SHT31;62585;49.706;18.216;2023-06-05T04:15:39;11.96;85.23
74224;SHT31;62585;49.706;18.216;2023-06-05T04:18:05;11.97;85.68
74224;SHT31;62585;49.706;18.216;2023-06-05T04:20:31;11.97;85.71
74224;SHT31;62585;49.706;18.216;2023-06-05T04:22:57;11.94;85.50
74224;SHT31;62585;49.706;18.216;2023-06-05T04:25:22;11.91;85.27
74224;SHT31;62585;49.706;18.216;2023-06-05T04:27:49;11.82;85.58
74224;SHT31;62585;49.706;18.216;2023-06-05T04:30:15;11.87;85.40
74224;SHT31;62585;49.706;18.216;2023-06-05T04:32:41;12.00;85.16
74224;SHT31;62585;49.706;18.216;2023-06-05T04:35:09;12.08;84.57
74224;SHT31;62585;49.706;18.216;2023-06-05T04:37:36;11.91;85.40
74224;SHT31;62585;49.706;18.216;2023-06-05T04:40:02;12.13;85.27
74224;SHT31;62585;49.706;18.216;2023-06-05T04:42:32;12.34;84.64
74224;SHT31;62585;49.706;18.216;2023-06-05T04:45:01;12.45;83.24
74224;SHT31;62585;49.706;18.216;2023-06-05T04:47:29;12.73;82.56
74224;SHT31;62585;49.706;18.216;2023-06-05T04:49:58;12.75;82.51
74224;SHT31;62585;49.706;18.216;2023-06-05T04:52:24;12.79;82.18
74224;SHT31;62585;49.706;18.216;2023-06-05T04:54:49;12.88;83.17
74224;SHT31;62585;49.706;18.216;2023-06-05T04:57:16;13.10;82.56
74224;SHT31;62585;49.706;18.216;2023-06-05T04:59:43;13.36;81.84
74224;SHT31;62585;49.706;18.216;2023-06-05T05:02:09;13.45;80.66
74224;SHT31;62585;49.706;18.216;2023-06-05T05:04:34;13.44;82.05
74224;SHT31;62585;49.706;18.216;2023-06-05T05:07:00;13.51;82.44
74224;SHT31;62585;49.706;18.216;2023-06-05T05:09:30;13.53;81.55
74224;SHT31;62585;49.706;18.216;2023-06-05T05:11:57;13.55;82.18
74224;SHT31;62585;49.706;18.216;2023-06-05T05:14:24;13.71;81.43
74224;SHT31;62585;49.706;18.216;2023-06-05T05:16:51;13.74;81.32
74224;SHT31;62585;49.706;18.216;2023-06-05T05:19:17;13.79;81.50
74224;SHT31;62585;49.706;18.216;2023-06-05T05:21:43;13.72;81.59
74224;SHT31;62585;49.706;18.216;2023-06-05T05:24:10;13.87;80.94
74224;SHT31;62585;49.706;18.216;2023-06-05T05:26:35;13.66;80.90
74224;SHT31;62585;49.706;18.216;2023-06-05T05:29:01;13.66;80.96
74224;SHT31;62585;49.706;18.216;2023-06-05T05:31:27;13.96;81.17
74224;SHT31;62585;49.706;18.216;2023-06-05T05:33:54;14.20;79.62
74224;SHT31;62585;49.706;18.216;2023-06-05T05:36:21;14.30;77.62
74224;SHT31;62585;49.706;18.216;2023-06-05T05:38:46;14.27;78.18
74224;SHT31;62585;49.706;18.216;2023-06-05T05:41:12;14.45;78.35
74224;SHT31;62585;49.706;18.216;2023-06-05T05:43:38;14.54;78.06
74224;SHT31;62585;49.706;18.216;2023-06-05T05:46:04;14.63;77.63
74224;SHT31;62585;49.706;18.216;2023-06-05T05:48:30;14.68;77.58
74224;SHT31;62585;49.706;18.216;2023-06-05T05:50:56;14.71;78.04
74224;SHT31;62585;49.706;18.216;2023-06-05T05:53:22;14.93;78.22
74224;SHT31;62585;49.706;18.216;2023-06-05T05:55:47;15.05;77.86
74224;SHT31;62585;49.706;18.216;2023-06-05T05:58:13;15.30;76.66
74224;SHT31;62585;49.706;18.216;2023-06-05T06:00:39;15.58;74.47
74224;SHT31;62585;49.706;18.216;2023-06-05T06:03:04;15.75;73.23
74224;SHT31;62585;49.706;18.216;2023-06-05T06:05:32;15.60;75.02
74224;SHT31;62585;49.706;18.216;2023-06-05T06:07:58;15.90;75.14
74224;SHT31;62585;49.706;18.216;2023-06-05T06:10:25;16.23;73.81
74224;SHT31;62585;49.706;18.216;2023-06-05T06:12:51;16.43;73.71
74224;SHT31;62585;49.706;18.216;2023-06-05T06:15:18;16.57;71.78
74224;SHT31;62585;49.706;18.216;2023-06-05T06:17:45;16.70;70.11
74224;SHT31;62585;49.706;18.216;2023-06-05T06:20:11;17.00;70.05
74224;SHT31;62585;49.706;18.216;2023-06-05T06:22:38;17.10;69.87
74224;SHT31;62585;49.706;18.216;2023-06-05T06:25:05;17.22;67.85
74224;SHT31;62585;49.706;18.216;2023-06-05T06:27:31;17.24;66.23
74224;SHT31;62585;49.706;18.216;2023-06-05T06:29:58;17.43;65.76
74224;SHT31;62585;49.706;18.216;2023-06-05T06:32:24;17.42;63.83
74224;SHT31;62585;49.706;18.216;2023-06-05T06:34:51;17.43;65.48
74224;SHT31;62585;49.706;18.216;2023-06-05T06:37:20;17.35;67.19
74224;SHT31;62585;49.706;18.216;2023-06-05T06:39:46;17.52;64.77
74224;SHT31;62585;49.706;18.216;2023-06-05T06:42:12;17.55;65.72
74224;SHT31;62585;49.706;18.216;2023-06-05T06:44:40;17.75;65.77
74224;SHT31;62585;49.706;18.216;2023-06-05T06:47:07;17.86;65.29
74224;SHT31;62585;49.706;18.216;2023-06-05T06:49:36;17.97;63.34
74224;SHT31;62585;49.706;18.216;2023-06-05T06:52:02;18.05;64.62
74224;SHT31;62585;49.706;18.216;2023-06-05T06:54:28;18.20;64.31
74224;SHT31;62585;49.706;18.216;2023-06-05T06:56:55;18.25;64.41
74224;SHT31;62585;49.706;18.216;2023-06-05T06:59:22;18.31;62.59
74224;SHT31;62585;49.706;18.216;2023-06-05T07:02:08;18.61;61.69
74224;SHT31;62585;49.706;18.216;2023-06-05T07:04:34;18.80;63.58
74224;SHT31;62585;49.706;18.216;2023-06-05T07:07:00;18.96;65.23
74224;SHT31;62585;49.706;18.216;2023-06-05T07:09:27;18.97;61.89
74224;SHT31;62585;49.706;18.216;2023-06-05T07:11:54;18.99;60.50
74224;SHT31;62585;49.706;18.216;2023-06-05T07:14:21;19.06;62.23
74224;SHT31;62585;49.706;18.216;2023-06-05T07:16:47;19.20;60.83
74224;SHT31;62585;49.706;18.216;2023-06-05T07:19:15;19.30;61.15
74224;SHT31;62585;49.706;18.216;2023-06-05T07:21:41;19.41;60.50
74224;SHT31;62585;49.706;18.216;2023-06-05T07:24:07;19.47;61.10
74224;SHT31;62585;49.706;18.216;2023-06-05T07:26:33;19.69;61.21
74224;SHT31;62585;49.706;18.216;2023-06-05T07:28:59;19.74;58.20
74224;SHT31;62585;49.706;18.216;2023-06-05T07:31:25;20.00;61.59
74224;SHT31;62585;49.706;18.216;2023-06-05T07:33:51;20.00;59.48
74224;SHT31;62585;49.706;18.216;2023-06-05T07:36:17;20.26;60.40
74224;SHT31;62585;49.706;18.216;2023-06-05T07:38:43;20.39;60.14
74224;SHT31;62585;49.706;18.216;2023-06-05T07:41:10;20.40;57.96
74224;SHT31;62585;49.706;18.216;2023-06-05T07:43:37;20.58;58.04
74224;SHT31;62585;49.706;18.216;2023-06-05T07:46:05;20.55;58.48
74224;SHT31;62585;49.706;18.216;2023-06-05T07:48:31;20.79;56.31
74224;SHT31;62585;49.706;18.216;2023-06-05T07:50:56;20.88;56.85
74224;SHT31;62585;49.706;18.216;2023-06-05T07:53:22;20.99;56.83
74224;SHT31;62585;49.706;18.216;2023-06-05T07:55:48;20.92;57.01
74224;SHT31;62585;49.706;18.216;2023-06-05T07:58:14;21.10;54.26
74224;SHT31;62585;49.706;18.216;2023-06-05T08:00:42;21.29;55.75
74224;SHT31;62585;49.706;18.216;2023-06-05T08:03:09;21.25;55.18
74224;SHT31;62585;49.706;18.216;2023-06-05T08:05:35;21.45;53.80
74224;SHT31;62585;49.706;18.216;2023-06-05T08:08:01;21.49;53.08
74224;SHT31;62585;49.706;18.216;2023-06-05T08:10:27;21.64;51.60
74224;SHT31;62585;49.706;18.216;2023-06-05T08:12:53;21.53;54.14
74224;SHT31;62585;49.706;18.216;2023-06-05T08:15:19;21.75;54.04
74224;SHT31;62585;49.706;18.216;2023-06-05T08:17:45;22.06;54.93
74224;SHT31;62585;49.706;18.216;2023-06-05T08:20:11;21.95;51.99
74224;SHT31;62585;49.706;18.216;2023-06-05T08:22:37;21.88;49.77
74224;SHT31;62585;49.706;18.216;2023-06-05T08:25:06;22.11;53.04
74224;SHT31;62585;49.706;18.216;2023-06-05T08:27:32;22.25;52.39
74224;SHT31;62585;49.706;18.216;2023-06-05T08:29:58;22.55;51.88
74224;SHT31;62585;49.706;18.216;2023-06-05T08:32:25;22.80;51.65
74224;SHT31;62585;49.706;18.216;2023-06-05T08:34:51;22.69;49.31
74224;SHT31;62585;49.706;18.216;2023-06-05T08:37:17;22.66;48.08
74224;SHT31;62585;49.706;18.216;2023-06-05T08:39:42;23.04;49.73
74224;SHT31;62585;49.706;18.216;2023-06-05T08:42:08;23.14;50.01
74224;SHT31;62585;49.706;18.216;2023-06-05T08:44:36;22.94;49.16
74224;SHT31;62585;49.706;18.216;2023-06-05T08:47:03;22.90;49.50
74224;SHT31;62585;49.706;18.216;2023-06-05T08:49:29;23.06;49.04
74224;SHT31;62585;49.706;18.216;2023-06-05T08:52:05;23.24;49.69
74224;SHT31;62585;49.706;18.216;2023-06-05T08:54:38;23.46;48.82
74224;SHT31;62585;49.706;18.216;2023-06-05T08:57:06;23.52;46.89
74224;SHT31;62585;49.706;18.216;2023-06-05T08:59:32;22.94;46.69
74224;SHT31;62585;49.706;18.216;2023-06-05T09:01:58;23.06;50.02
74224;SHT31;62585;49.706;18.216;2023-06-05T09:04:24;23.03;50.73
74224;SHT31;62585;49.706;18.216;2023-06-05T09:06:51;23.01;50.17
74224;SHT31;62585;49.706;18.216;2023-06-05T09:09:20;23.17;50.02
74224;SHT31;62585;49.706;18.216;2023-06-05T09:11:46;23.59;49.45
74224;SHT31;62585;49.706;18.216;2023-06-05T09:14:11;23.59;46.91
74224;SHT31;62585;49.706;18.216;2023-06-05T09:16:39;23.75;47.40
74224;SHT31;62585;49.706;18.216;2023-06-05T09:19:06;23.31;46.57
74224;SHT31;62585;49.706;18.216;2023-06-05T09:21:32;23.17;47.11
74224;SHT31;62585;49.706;18.216;2023-06-05T09:24:20;23.01;47.88
74224;SHT31;62585;49.706;18.216;2023-06-05T09:27:08;22.83;46.88
74224;SHT31;62585;49.706;18.216;2023-06-05T09:29:38;23.00;46.45
74224;SHT31;62585;49.706;18.216;2023-06-05T09:34:32;23.44;47.47
74224;SHT31;62585;49.706;18.216;2023-06-05T09:37:00;23.32;47.51
74224;SHT31;62585;49.706;18.216;2023-06-05T09:39:27;23.39;48.32
74224;SHT31;62585;49.706;18.216;2023-06-05T09:41:54;23.19;46.74
74224;SHT31;62585;49.706;18.216;2023-06-05T09:44:21;22.98;49.03
74224;SHT31;62585;49.706;18.216;2023-06-05T09:47:00;22.93;46.65
74224;SHT31;62585;49.706;18.216;2023-06-05T09:49:33;22.81;47.74
74224;SHT31;62585;49.706;18.216;2023-06-05T09:52:11;22.80;47.22
74224;SHT31;62585;49.706;18.216;2023-06-05T09:54:39;22.64;48.78
74224;SHT31;62585;49.706;18.216;2023-06-05T09:57:07;22.63;48.13
74224;SHT31;62585;49.706;18.216;2023-06-05T10:02:11;22.96;49.38
74224;SHT31;62585;49.706;18.216;2023-06-05T10:05:02;22.60;48.44
74224;SHT31;62585;49.706;18.216;2023-06-05T10:07:32;22.48;49.25
74224;SHT31;62585;49.706;18.216;2023-06-05T10:10:01;22.61;50.52
74224;SHT31;62585;49.706;18.216;2023-06-05T10:12:30;22.64;51.65
74224;SHT31;62585;49.706;18.216;2023-06-05T10:14:57;22.61;53.76
74224;SHT31;62585;49.706;18.216;2023-06-05T10:17:22;22.79;53.68
74224;SHT31;62585;49.706;18.216;2023-06-05T10:19:50;22.96;50.48
74224;SHT31;62585;49.706;18.216;2023-06-05T10:22:19;23.01;46.89
74224;SHT31;62585;49.706;18.216;2023-06-05T10:24:48;23.07;48.06
74224;SHT31;62585;49.706;18.216;2023-06-05T10:38:20;22.38;47.88
74224;SHT31;62585;49.706;18.216;2023-06-05T10:40:57;22.46;48.37
74224;SHT31;62585;49.706;18.216;2023-06-05T10:45:55;22.06;53.18
74224;SHT31;62585;49.706;18.216;2023-06-05T10:48:21;22.00;54.78
74224;SHT31;62585;49.706;18.216;2023-06-05T10:51:35;21.80;54.63
74224;SHT31;62585;49.706;18.216;2023-06-05T10:54:13;21.93;55.15
74224;SHT31;62585;49.706;18.216;2023-06-05T10:59:32;22.06;54.73
74224;SHT31;62585;49.706;18.216;2023-06-05T11:15:02;21.71;55.28
74224;SHT31;62585;49.706;18.216;2023-06-05T11:17:39;21.78;55.16
74224;SHT31;62585;49.706;18.216;2023-06-05T11:20:07;21.70;55.57
74224;SHT31;62585;49.706;18.216;2023-06-05T11:28:05;21.68;57.82
74224;SHT31;62585;49.706;18.216;2023-06-05T11:30:39;21.49;56.44
74224;SHT31;62585;49.706;18.216;2023-06-05T11:35:42;21.22;62.71
74224;SHT31;62585;49.706;18.216;2023-06-05T11:38:12;21.18;64.14
74224;SHT31;62585;49.706;18.216;2023-06-05T11:40:39;21.16;65.66
74224;SHT31;62585;49.706;18.216;2023-06-05T11:43:09;21.09;67.68
74224;SHT31;62585;49.706;18.216;2023-06-05T11:45:37;21.09;63.24
74224;SHT31;62585;49.706;18.216;2023-06-05T11:48:13;21.16;63.49
74224;SHT31;62585;49.706;18.216;2023-06-05T11:51:03;21.18;65.15
74224;SHT31;62585;49.706;18.216;2023-06-05T11:53:31;21.18;64.55
74224;SHT31;62585;49.706;18.216;2023-06-05T11:55:58;21.16;62.61
74224;SHT31;62585;49.706;18.216;2023-06-05T11:58:31;21.15;63.49
74224;SHT31;62585;49.706;18.216;2023-06-05T12:01:24;21.30;64.70
74224;SHT31;62585;49.706;18.216;2023-06-05T12:04:04;21.20;62.75
74224;SHT31;62585;49.706;18.216;2023-06-05T12:06:30;21.03;63.10
74224;SHT31;62585;49.706;18.216;2023-06-05T12:09:09;21.06;61.59
74224;SHT31;62585;49.706;18.216;2023-06-05T12:11:37;21.16;61.80
74224;SHT31;62585;49.706;18.216;2023-06-05T12:14:06;21.16;61.40
74224;SHT31;62585;49.706;18.216;2023-06-05T12:16:38;21.23;60.91
74224;SHT31;62585;49.706;18.216;2023-06-05T12:19:17;21.30;62.78
74224;SHT31;62585;49.706;18.216;2023-06-05T12:21:46;21.39;62.29
74224;SHT31;62585;49.706;18.216;2023-06-05T12:24:12;21.42;62.32
74224;SHT31;62585;49.706;18.216;2023-06-05T12:26:55;21.45;62.63
74224;SHT31;62585;49.706;18.216;2023-06-05T12:29:30;21.46;62.35
74224;SHT31;62585;49.706;18.216;2023-06-05T12:31:57;21.40;61.61
74224;SHT31;62585;49.706;18.216;2023-06-05T12:34:55;21.54;63.16
74224;SHT31;62585;49.706;18.216;2023-06-05T12:37:27;21.47;61.62
74224;SHT31;62585;49.706;18.216;2023-06-05T12:39:58;21.47;61.64
74224;SHT31;62585;49.706;18.216;2023-06-05T12:42:33;21.46;62.28
74224;SHT31;62585;49.706;18.216;2023-06-05T12:45:01;21.42;62.74
74224;SHT31;62585;49.706;18.216;2023-06-05T12:47:27;21.35;63.03
74224;SHT31;62585;49.706;18.216;2023-06-05T12:49:52;21.35;63.76
74224;SHT31;62585;49.706;18.216;2023-06-05T12:52:18;21.29;61.89
74224;SHT31;62585;49.706;18.216;2023-06-05T12:54:51;21.33;60.26
74224;SHT31;62585;49.706;18.216;2023-06-05T12:57:16;21.33;59.91
74224;SHT31;62585;49.706;18.216;2023-06-05T12:59:51;21.30;59.21
74224;SHT31;62585;49.706;18.216;2023-06-05T13:02:17;21.40;60.50
74224;SHT31;62585;49.706;18.216;2023-06-05T13:04:42;21.46;62.68
74224;SHT31;62585;49.706;18.216;2023-06-05T13:07:09;21.56;60.49
74224;SHT31;62585;49.706;18.216;2023-06-05T13:09:37;21.64;64.19
74224;SHT31;62585;49.706;18.216;2023-06-05T13:12:03;21.64;64.67
74224;SHT31;62585;49.706;18.216;2023-06-05T13:14:32;21.60;64.82
74224;SHT31;62585;49.706;18.216;2023-06-05T13:16:58;21.57;64.10
74224;SHT31;62585;49.706;18.216;2023-06-05T13:19:24;21.51;65.47
74224;SHT31;62585;49.706;18.216;2023-06-05T13:21:51;21.43;63.27
74224;SHT31;62585;49.706;18.216;2023-06-05T13:24:17;21.46;63.80
74224;SHT31;62585;49.706;18.216;2023-06-05T13:26:44;21.46;63.02
74224;SHT31;62585;49.706;18.216;2023-06-05T13:29:10;21.37;63.05
74224;SHT31;62585;49.706;18.216;2023-06-05T13:31:37;21.32;62.39
74224;SHT31;62585;49.706;18.216;2023-06-05T13:34:03;21.26;64.07
74224;SHT31;62585;49.706;18.216;2023-06-05T13:36:28;21.25;65.01
74224;SHT31;62585;49.706;18.216;2023-06-05T13:38:54;21.25;63.93
74224;SHT31;62585;49.706;18.216;2023-06-05T13:41:20;21.26;64.90
74224;SHT31;62585;49.706;18.216;2023-06-05T13:43:48;21.19;66.64
74224;SHT31;62585;49.706;18.216;2023-06-05T13:46:13;21.13;66.39
74224;SHT31;62585;49.706;18.216;2023-06-05T13:48:39;21.13;66.08
74224;SHT31;62585;49.706;18.216;2023-06-05T13:51:05;21.15;64.19
74224;SHT31;62585;49.706;18.216;2023-06-05T13:53:31;21.13;67.98
74224;SHT31;62585;49.706;18.216;2023-06-05T13:56:03;21.12;69.70
74224;SHT31;62585;49.706;18.216;2023-06-05T13:58:29;21.00;65.09
74224;SHT31;62585;49.706;18.216;2023-06-05T14:00:55;20.98;65.66
74224;SHT31;62585;49.706;18.216;2023-06-05T14:03:21;20.94;66.10
74224;SHT31;62585;49.706;18.216;2023-06-05T14:05:47;20.89;67.22
74224;SHT31;62585;49.706;18.216;2023-06-05T14:08:13;20.81;67.99
74224;SHT31;62585;49.706;18.216;2023-06-05T14:10:39;20.58;66.98
74224;SHT31;62585;49.706;18.216;2023-06-05T14:13:05;20.65;68.37
74224;SHT31;62585;49.706;18.216;2023-06-05T14:15:32;20.61;68.26
74224;SHT31;62585;49.706;18.216;2023-06-05T14:18:02;20.57;66.80
74224;SHT31;62585;49.706;18.216;2023-06-05T14:20:29;20.48;70.63
74224;SHT31;62585;49.706;18.216;2023-06-05T14:22:58;20.47;67.15
74224;SHT31;62585;49.706;18.216;2023-06-05T14:25:25;20.58;71.89
74224;SHT31;62585;49.706;18.216;2023-06-05T14:27:54;20.43;68.36
74224;SHT31;62585;49.706;18.216;2023-06-05T14:30:24;20.40;68.98
74224;SHT31;62585;49.706;18.216;2023-06-05T14:32:51;20.39;71.60
74224;SHT31;62585;49.706;18.216;2023-06-05T14:35:17;20.30;70.66
74224;SHT31;62585;49.706;18.216;2023-06-05T14:37:45;20.20;71.65
74224;SHT31;62585;49.706;18.216;2023-06-05T14:40:11;20.06;70.95
74224;SHT31;62585;49.706;18.216;2023-06-05T14:42:37;19.89;71.88
74224;SHT31;62585;49.706;18.216;2023-06-05T14:45:04;20.06;72.56
74224;SHT31;62585;49.706;18.216;2023-06-05T14:47:29;20.03;72.25
74224;SHT31;62585;49.706;18.216;2023-06-05T14:49:55;20.05;73.27
74224;SHT31;62585;49.706;18.216;2023-06-05T14:52:21;20.09;73.05
74224;SHT31;62585;49.706;18.216;2023-06-05T14:54:47;20.23;72.26
74224;SHT31;62585;49.706;18.216;2023-06-05T14:57:13;20.20;70.72
74224;SHT31;62585;49.706;18.216;2023-06-05T14:59:40;20.22;72.97
74224;SHT31;62585;49.706;18.216;2023-06-05T15:02:06;20.13;71.78
74224;SHT31;62585;49.706;18.216;2023-06-05T15:04:32;20.12;72.96
74224;SHT31;62585;49.706;18.216;2023-06-05T15:06:59;20.10;74.83
74224;SHT31;62585;49.706;18.216;2023-06-05T15:09:25;19.96;73.01
74224;SHT31;62585;49.706;18.216;2023-06-05T15:11:51;19.87;73.75
74224;SHT31;62585;49.706;18.216;2023-06-05T15:14:18;19.92;74.54
74224;SHT31;62585;49.706;18.216;2023-06-05T15:16:44;19.90;75.03
74224;SHT31;62585;49.706;18.216;2023-06-05T15:19:10;19.83;76.31
74224;SHT31;62585;49.706;18.216;2023-06-05T15:21:35;19.75;73.80
74224;SHT31;62585;49.706;18.216;2023-06-05T15:24:02;19.81;75.16
74224;SHT31;62585;49.706;18.216;2023-06-05T15:26:27;19.75;73.45
74224;SHT31;62585;49.706;18.216;2023-06-05T15:28:53;19.58;73.29
74224;SHT31;62585;49.706;18.216;2023-06-05T15:31:19;19.48;73.64
74224;SHT31;62585;49.706;18.216;2023-06-05T15:33:45;19.37;74.28
74224;SHT31;62585;49.706;18.216;2023-06-05T15:36:11;19.31;74.14
74224;SHT31;62585;49.706;18.216;2023-06-05T15:38:37;19.27;74.44
74224;SHT31;62585;49.706;18.216;2023-06-05T15:41:02;19.16;74.80
74224;SHT31;62585;49.706;18.216;2023-06-05T15:43:28;19.03;75.15
74224;SHT31;62585;49.706;18.216;2023-06-05T15:45:54;19.00;75.43
74224;SHT31;62585;49.706;18.216;2023-06-05T15:48:21;19.06;75.34
74224;SHT31;62585;49.706;18.216;2023-06-05T15:50:47;18.97;74.35
74224;SHT31;62585;49.706;18.216;2023-06-05T15:53:13;18.77;74.94
74224;SHT31;62585;49.706;18.216;2023-06-05T15:55:39;18.85;75.12
74224;SHT31;62585;49.706;18.216;2023-06-05T15:58:08;18.83;75.57
74224;SHT31;62585;49.706;18.216;2023-06-05T16:00:33;18.79;75.62
74224;SHT31;62585;49.706;18.216;2023-06-05T16:02:59;18.79;76.24
74224;SHT31;62585;49.706;18.216;2023-06-05T16:05:25;18.79;75.90